KTVL/TVL METAR and TAF weather

Enter ICAO airport designator
Station Type Date Time Source
KTVL METAR 2018/12/15 20:53 UTC NOAA

KTVL 152053Z AUTO 20006KT 10SM CLR 09/M10 A3009 RMK AO2 SLP163 T00891100 58010


Station Type Date Time Source
KTVL Decoded METAR 2018/12/15 20:53 UTC NOAA

SOUTH LAKE TAHOE AIRPORT, CA, United States (KTVL) 38-53N 119-59W 1925M
Dec 15, 2018 - 03:53 PM EST / 2018.12.15 2053 UTC
Wind: from the SSW (200 degrees) at 7 MPH (6 KT):0
Visibility: 10 mile(s):0
Sky conditions: clear
Temperature: 48.0 F (8.9 C)
Dew Point: 14.0 F (-10.0 C)
Relative Humidity: 25%
Pressure (altimeter): 30.09 in. Hg (1018 hPa)
Pressure tendency: 0.03 inches (1.0 hPa) lower than three hours ago
ob: KTVL 152053Z AUTO 20006KT 10SM CLR 09/M10 A3009 RMK AO2 SLP163 T00891100 58010
cycle: 21

Station Type Date Time Source
KTVL TAF 2018/12/15 18:22 UTC NOAA

TAF KTVL 151720Z 1518/1618 20006KT P6SM SCT120 BKN180
FM152000 19009G15KT P6SM FEW050 BKN160
FM152300 19007KT P6SM FEW120 SCT180
FM161500 19010G16KT P6SM FEW120 BKN160


Example: see airport list